sensor_id;sensor_type;location;lat;lon;timestamp;pressure;altitude;pressure_sealevel;temperature;humidity
22653;BME280;11493;43.344;26.226;2023-02-04T00:00:05;99093.13;;;2.68;81.71
22653;BME280;11493;43.344;26.226;2023-02-04T00:02:37;99094.53;;;2.81;80.62
22653;BME280;11493;43.344;26.226;2023-02-04T00:05:04;99105.38;;;3.01;79.18
22653;BME280;11493;43.344;26.226;2023-02-04T00:07:31;99111.38;;;3.03;80.83
22653;BME280;11493;43.344;26.226;2023-02-04T00:09:58;99095.06;;;3.03;81.13
22653;BME280;11493;43.344;26.226;2023-02-04T00:12:25;99092.88;;;3.05;82.20
22653;BME280;11493;43.344;26.226;2023-02-04T00:14:52;99098.31;;;3.05;84.16
22653;BME280;11493;43.344;26.226;2023-02-04T00:17:19;99081.22;;;2.89;87.18
22653;BME280;11493;43.344;26.226;2023-02-04T00:19:46;99076.31;;;2.86;87.68
22653;BME280;11493;43.344;26.226;2023-02-04T00:22:13;99082.03;;;2.80;89.42
22653;BME280;11493;43.344;26.226;2023-02-04T00:24:40;99079.28;;;2.75;90.95
22653;BME280;11493;43.344;26.226;2023-02-04T00:27:08;99085.28;;;2.82;91.54
22653;BME280;11493;43.344;26.226;2023-02-04T00:29:35;99074.13;;;2.78;92.73
22653;BME280;11493;43.344;26.226;2023-02-04T00:32:02;99073.59;;;2.76;94.09
22653;BME280;11493;43.344;26.226;2023-02-04T00:34:30;99066.25;;;2.82;93.88
22653;BME280;11493;43.344;26.226;2023-02-04T00:36:57;99053.22;;;2.74;94.70
22653;BME280;11493;43.344;26.226;2023-02-04T00:39:24;99051.56;;;2.68;94.91
22653;BME280;11493;43.344;26.226;2023-02-04T00:41:51;99056.47;;;2.76;95.64
22653;BME280;11493;43.344;26.226;2023-02-04T00:44:18;99059.19;;;2.76;96.15
22653;BME280;11493;43.344;26.226;2023-02-04T00:46:44;99034.75;;;2.71;96.31
22653;BME280;11493;43.344;26.226;2023-02-04T00:49:14;99034.19;;;2.58;97.48
22653;BME280;11493;43.344;26.226;2023-02-04T00:51:41;99032.84;;;2.66;97.70
22653;BME280;11493;43.344;26.226;2023-02-04T00:54:12;99039.59;;;2.53;98.30
22653;BME280;11493;43.344;26.226;2023-02-04T00:56:42;99018.94;;;2.42;99.11
22653;BME280;11493;43.344;26.226;2023-02-04T00:59:09;99018.41;;;2.40;99.84
22653;BME280;11493;43.344;26.226;2023-02-04T01:01:37;99013.78;;;2.41;100.00
22653;BME280;11493;43.344;26.226;2023-02-04T01:04:04;99009.16;;;2.36;100.00
22653;BME280;11493;43.344;26.226;2023-02-04T01:06:31;99009.69;;;2.28;100.00
22653;BME280;11493;43.344;26.226;2023-02-04T01:08:58;99003.72;;;2.26;100.00
22653;BME280;11493;43.344;26.226;2023-02-04T01:11:27;98994.22;;;2.28;100.00
22653;BME280;11493;43.344;26.226;2023-02-04T01:13:55;98988.50;;;2.25;100.00
22653;BME280;11493;43.344;26.226;2023-02-04T01:16:22;98985.53;;;2.26;100.00
22653;BME280;11493;43.344;26.226;2023-02-04T01:18:51;98987.44;;;2.31;100.00
22653;BME280;11493;43.344;26.226;2023-02-04T01:21:23;98970.59;;;2.24;100.00
22653;BME280;11493;43.344;26.226;2023-02-04T01:23:50;98961.09;;;2.16;100.00
22653;BME280;11493;43.344;26.226;2023-02-04T01:26:18;98966.78;;;2.25;100.00
22653;BME280;11493;43.344;26.226;2023-02-04T01:28:46;98952.41;;;2.24;100.00
22653;BME280;11493;43.344;26.226;2023-02-04T01:31:13;98960.81;;;2.23;100.00
22653;BME280;11493;43.344;26.226;2023-02-04T01:33:41;98950.50;;;2.10;100.00
22653;BME280;11493;43.344;26.226;2023-02-04T01:36:08;98953.78;;;2.12;100.00
22653;BME280;11493;43.344;26.226;2023-02-04T01:38:36;98935.06;;;2.15;100.00
22653;BME280;11493;43.344;26.226;2023-02-04T01:41:04;98931.53;;;2.20;100.00
22653;BME280;11493;43.344;26.226;2023-02-04T01:43:32;98932.59;;;2.24;100.00
22653;BME280;11493;43.344;26.226;2023-02-04T01:45:59;98929.34;;;2.22;100.00
22653;BME280;11493;43.344;26.226;2023-02-04T01:48:28;98905.47;;;2.14;100.00
22653;BME280;11493;43.344;26.226;2023-02-04T01:51:02;98909.25;;;2.23;100.00
22653;BME280;11493;43.344;26.226;2023-02-04T01:53:30;98910.34;;;2.27;100.00
22653;BME280;11493;43.344;26.226;2023-02-04T01:55:58;98906.00;;;2.31;100.00
22653;BME280;11493;43.344;26.226;2023-02-04T01:58:28;98891.91;;;2.19;100.00
22653;BME280;11493;43.344;26.226;2023-02-04T02:00:57;98898.94;;;2.25;100.00
22653;BME280;11493;43.344;26.226;2023-02-04T02:03:24;98895.69;;;2.28;100.00
22653;BME280;11493;43.344;26.226;2023-02-04T02:05:53;98878.06;;;2.20;100.00
22653;BME280;11493;43.344;26.226;2023-02-04T02:08:24;98882.91;;;2.28;100.00
22653;BME280;11493;43.344;26.226;2023-02-04T02:10:51;98858.78;;;2.22;100.00
22653;BME280;11493;43.344;26.226;2023-02-04T02:13:18;98864.19;;;2.32;100.00
22653;BME280;11493;43.344;26.226;2023-02-04T02:15:46;98862.00;;;2.34;100.00
22653;BME280;11493;43.344;26.226;2023-02-04T02:18:14;98853.06;;;2.28;100.00
22653;BME280;11493;43.344;26.226;2023-02-04T02:20:42;98870.16;;;2.39;100.00
22653;BME280;11493;43.344;26.226;2023-02-04T02:23:24;98869.34;;;2.39;100.00
22653;BME280;11493;43.344;26.226;2023-02-04T02:25:52;98852.50;;;2.42;100.00
22653;BME280;11493;43.344;26.226;2023-02-04T02:28:21;98844.38;;;2.42;100.00
22653;BME280;11493;43.344;26.226;2023-02-04T02:30:49;98837.84;;;2.43;100.00
22653;BME280;11493;43.344;26.226;2023-02-04T02:33:19;98848.44;;;2.49;100.00
22653;BME280;11493;43.344;26.226;2023-02-04T02:35:48;98837.03;;;2.52;100.00
22653;BME280;11493;43.344;26.226;2023-02-04T02:38:16;98843.25;;;2.53;100.00
22653;BME280;11493;43.344;26.226;2023-02-04T02:40:44;98837.84;;;2.53;100.00
22653;BME280;11493;43.344;26.226;2023-02-04T02:43:15;98824.53;;;2.46;100.00
22653;BME280;11493;43.344;26.226;2023-02-04T02:45:43;98813.66;;;2.51;100.00
22653;BME280;11493;43.344;26.226;2023-02-04T02:48:11;98818.28;;;2.51;100.00
22653;BME280;11493;43.344;26.226;2023-02-04T02:50:39;98812.28;;;2.64;100.00
22653;BME280;11493;43.344;26.226;2023-02-04T02:53:18;98809.56;;;2.64;100.00
22653;BME280;11493;43.344;26.226;2023-02-04T02:55:47;98812.53;;;2.78;100.00
22653;BME280;11493;43.344;26.226;2023-02-04T02:58:38;98801.38;;;2.79;100.00
22653;BME280;11493;43.344;26.226;2023-02-04T03:01:07;98808.19;;;2.72;100.00
22653;BME280;11493;43.344;26.226;2023-02-04T03:03:44;98799.50;;;2.70;100.00
22653;BME280;11493;43.344;26.226;2023-02-04T03:06:19;98781.91;;;2.52;100.00
22653;BME280;11493;43.344;26.226;2023-02-04T03:08:49;98780.00;;;2.47;100.00
22653;BME280;11493;43.344;26.226;2023-02-04T03:11:17;98796.00;;;2.59;100.00
22653;BME280;11493;43.344;26.226;2023-02-04T03:13:46;98787.59;;;2.55;100.00
22653;BME280;11493;43.344;26.226;2023-02-04T03:16:13;98768.84;;;2.54;100.00
22653;BME280;11493;43.344;26.226;2023-02-04T03:18:40;98771.00;;;2.62;100.00
22653;BME280;11493;43.344;26.226;2023-02-04T03:21:09;98779.94;;;2.73;100.00
22653;BME280;11493;43.344;26.226;2023-02-04T03:23:36;98758.78;;;2.59;100.00
22653;BME280;11493;43.344;26.226;2023-02-04T03:26:05;98768.56;;;2.66;100.00
22653;BME280;11493;43.344;26.226;2023-02-04T03:28:33;98770.19;;;2.67;100.00
22653;BME280;11493;43.344;26.226;2023-02-04T03:31:04;98760.66;;;2.74;100.00
22653;BME280;11493;43.344;26.226;2023-02-04T03:33:31;98755.47;;;2.78;100.00
22653;BME280;11493;43.344;26.226;2023-02-04T03:36:01;98746.84;;;2.60;100.00
22653;BME280;11493;43.344;26.226;2023-02-04T03:38:28;98731.13;;;2.52;100.00
22653;BME280;11493;43.344;26.226;2023-02-04T03:40:55;98740.34;;;2.56;100.00
22653;BME280;11493;43.344;26.226;2023-02-04T03:43:22;98747.94;;;2.59;100.00
22653;BME280;11493;43.344;26.226;2023-02-04T03:45:49;98749.53;;;2.66;100.00
22653;BME280;11493;43.344;26.226;2023-02-04T03:48:16;98731.63;;;2.64;100.00
22653;BME280;11493;43.344;26.226;2023-02-04T03:50:43;98734.31;;;2.70;100.00
22653;BME280;11493;43.344;26.226;2023-02-04T03:53:10;98726.69;;;2.72;100.00
22653;BME280;11493;43.344;26.226;2023-02-04T03:55:37;98720.72;;;2.75;100.00
22653;BME280;11493;43.344;26.226;2023-02-04T03:58:04;98722.88;;;2.78;100.00
22653;BME280;11493;43.344;26.226;2023-02-04T04:00:31;98715.22;;;2.85;100.00
22653;BME280;11493;43.344;26.226;2023-02-04T04:02:59;98708.69;;;2.91;100.00
22653;BME280;11493;43.344;26.226;2023-02-04T04:05:26;98696.75;;;2.87;100.00
22653;BME280;11493;43.344;26.226;2023-02-04T04:07:54;98703.22;;;2.96;100.00
22653;BME280;11493;43.344;26.226;2023-02-04T04:10:22;98698.59;;;2.96;100.00
22653;BME280;11493;43.344;26.226;2023-02-04T04:12:49;98703.69;;;3.03;100.00
22653;BME280;11493;43.344;26.226;2023-02-04T04:15:16;98689.56;;;3.06;100.00
22653;BME280;11493;43.344;26.226;2023-02-04T04:17:43;98695.72;;;3.17;100.00
22653;BME280;11493;43.344;26.226;2023-02-04T04:20:11;98687.84;;;3.15;100.00
22653;BME280;11493;43.344;26.226;2023-02-04T04:22:38;98694.41;;;3.09;100.00
22653;BME280;11493;43.344;26.226;2023-02-04T04:25:06;98703.06;;;3.16;100.00
22653;BME280;11493;43.344;26.226;2023-02-04T04:27:33;98693.31;;;3.15;100.00
22653;BME280;11493;43.344;26.226;2023-02-04T04:30:00;98688.09;;;3.19;100.00
22653;BME280;11493;43.344;26.226;2023-02-04T04:32:27;98679.19;;;3.13;100.00
22653;BME280;11493;43.344;26.226;2023-02-04T04:34:55;98686.16;;;3.24;100.00
22653;BME280;11493;43.344;26.226;2023-02-04T04:37:21;98683.97;;;3.26;100.00
22653;BME280;11493;43.344;26.226;2023-02-04T04:39:48;98684.78;;;3.27;100.00
22653;BME280;11493;43.344;26.226;2023-02-04T04:42:15;98679.59;;;3.30;100.00
22653;BME280;11493;43.344;26.226;2023-02-04T04:44:42;98676.31;;;3.34;100.00
22653;BME280;11493;43.344;26.226;2023-02-04T04:47:09;98669.38;;;3.17;100.00
22653;BME280;11493;43.344;26.226;2023-02-04T04:49:36;98689.63;;;3.35;100.00
22653;BME280;11493;43.344;26.226;2023-02-04T04:52:03;98683.66;;;3.33;100.00
22653;BME280;11493;43.344;26.226;2023-02-04T04:54:30;98669.84;;;3.24;100.00
22653;BME280;11493;43.344;26.226;2023-02-04T04:56:57;98669.00;;;3.29;100.00
22653;BME280;11493;43.344;26.226;2023-02-04T04:59:24;98670.31;;;3.37;100.00
22653;BME280;11493;43.344;26.226;2023-02-04T05:01:51;98660.00;;;3.34;100.00
22653;BME280;11493;43.344;26.226;2023-02-04T05:04:18;98665.97;;;3.36;100.00
22653;BME280;11493;43.344;26.226;2023-02-04T05:06:45;98665.69;;;3.37;100.00
22653;BME280;11493;43.344;26.226;2023-02-04T05:09:12;98662.72;;;3.34;100.00
22653;BME280;11493;43.344;26.226;2023-02-04T05:11:40;98663.28;;;3.30;100.00
22653;BME280;11493;43.344;26.226;2023-02-04T05:14:08;98656.22;;;3.29;100.00
22653;BME280;11493;43.344;26.226;2023-02-04T05:16:34;98663.03;;;3.27;100.00
22653;BME280;11493;43.344;26.226;2023-02-04T05:19:01;98664.34;;;3.35;100.00
22653;BME280;11493;43.344;26.226;2023-02-04T05:21:28;98660.38;;;3.22;100.00
22653;BME280;11493;43.344;26.226;2023-02-04T05:23:56;98670.19;;;3.18;100.00
22653;BME280;11493;43.344;26.226;2023-02-04T05:26:23;98668.84;;;3.15;100.00
22653;BME280;11493;43.344;26.226;2023-02-04T05:28:57;98668.84;;;3.15;100.00
22653;BME280;11493;43.344;26.226;2023-02-04T05:31:26;98653.38;;;3.11;100.00
22653;BME280;11493;43.344;26.226;2023-02-04T05:33:53;98664.50;;;3.14;100.00
22653;BME280;11493;43.344;26.226;2023-02-04T05:36:20;98651.22;;;3.08;100.00
22653;BME280;11493;43.344;26.226;2023-02-04T05:38:47;98650.38;;;3.12;100.00
22653;BME280;11493;43.344;26.226;2023-02-04T05:41:14;98648.22;;;3.09;100.00
22653;BME280;11493;43.344;26.226;2023-02-04T05:43:42;98650.13;;;3.09;100.00
22653;BME280;11493;43.344;26.226;2023-02-04T05:46:09;98651.44;;;3.16;100.00
22653;BME280;11493;43.344;26.226;2023-02-04T05:48:36;98655.97;;;3.26;100.00
22653;BME280;11493;43.344;26.226;2023-02-04T05:51:05;98638.41;;;3.13;100.00
22653;BME280;11493;43.344;26.226;2023-02-04T05:53:32;98644.34;;;3.20;100.00
22653;BME280;11493;43.344;26.226;2023-02-04T05:55:59;98644.59;;;3.24;100.00
22653;BME280;11493;43.344;26.226;2023-02-04T05:58:26;98647.53;;;3.27;100.00
22653;BME280;11493;43.344;26.226;2023-02-04T06:01:00;98642.38;;;3.26;100.00
22653;BME280;11493;43.344;26.226;2023-02-04T06:03:28;98648.09;;;3.24;100.00
22653;BME280;11493;43.344;26.226;2023-02-04T06:05:56;98653.47;;;3.35;100.00
22653;BME280;11493;43.344;26.226;2023-02-04T06:08:23;98655.09;;;3.36;100.00
22653;BME280;11493;43.344;26.226;2023-02-04T06:10:50;98648.84;;;3.35;100.00
22653;BME280;11493;43.344;26.226;2023-02-04T06:13:17;98648.84;;;3.35;100.00
22653;BME280;11493;43.344;26.226;2023-02-04T06:15:44;98642.06;;;3.33;100.00
22653;BME280;11493;43.344;26.226;2023-02-04T06:18:11;98653.97;;;3.42;100.00
22653;BME280;11493;43.344;26.226;2023-02-04T06:20:39;98630.72;;;3.25;100.00
22653;BME280;11493;43.344;26.226;2023-02-04T06:23:06;98659.94;;;3.44;100.00
22653;BME280;11493;43.344;26.226;2023-02-04T06:25:33;98652.06;;;3.42;100.00
22653;BME280;11493;43.344;26.226;2023-02-04T06:28:00;98652.59;;;3.44;100.00
22653;BME280;11493;43.344;26.226;2023-02-04T06:30:27;98658.75;;;3.55;100.00
22653;BME280;11493;43.344;26.226;2023-02-04T06:32:55;98657.94;;;3.54;100.00
22653;BME280;11493;43.344;26.226;2023-02-04T06:35:21;98649.78;;;3.54;100.00
22653;BME280;11493;43.344;26.226;2023-02-04T06:37:48;98666.88;;;3.60;100.00
22653;BME280;11493;43.344;26.226;2023-02-04T06:40:15;98655.97;;;3.60;100.00
22653;BME280;11493;43.344;26.226;2023-02-04T06:42:42;98655.47;;;3.58;100.00
22653;BME280;11493;43.344;26.226;2023-02-04T06:45:09;98653.78;;;3.62;100.00
22653;BME280;11493;43.344;26.226;2023-02-04T06:47:37;98659.59;;;3.79;100.00
22653;BME280;11493;43.344;26.226;2023-02-04T06:50:04;98659.88;;;3.78;100.00
22653;BME280;11493;43.344;26.226;2023-02-04T06:52:31;98667.19;;;3.82;100.00
22653;BME280;11493;43.344;26.226;2023-02-04T06:54:58;98663.38;;;3.83;100.00
22653;BME280;11493;43.344;26.226;2023-02-04T06:57:25;98667.72;;;3.84;100.00
22653;BME280;11493;43.344;26.226;2023-02-04T06:59:53;98677.22;;;3.87;100.00
22653;BME280;11493;43.344;26.226;2023-02-04T07:02:20;98670.13;;;3.86;100.00
22653;BME280;11493;43.344;26.226;2023-02-04T07:04:47;98659.34;;;3.76;100.00
22653;BME280;11493;43.344;26.226;2023-02-04T07:07:15;98646.41;;;3.68;100.00
22653;BME280;11493;43.344;26.226;2023-02-04T07:09:42;98668.75;;;3.88;100.00
22653;BME280;11493;43.344;26.226;2023-02-04T07:12:09;98675.00;;;3.89;100.00
22653;BME280;11493;43.344;26.226;2023-02-04T07:14:36;98663.38;;;3.83;100.00
22653;BME280;11493;43.344;26.226;2023-02-04T07:17:04;98647.31;;;3.82;100.00
22653;BME280;11493;43.344;26.226;2023-02-04T07:19:30;98656.19;;;3.92;100.00
22653;BME280;11493;43.344;26.226;2023-02-04T07:21:57;98671.00;;;4.10;100.00
22653;BME280;11493;43.344;26.226;2023-02-04T07:24:24;98670.88;;;4.20;100.00
22653;BME280;11493;43.344;26.226;2023-02-04T07:26:51;98661.56;;;4.26;100.00
22653;BME280;11493;43.344;26.226;2023-02-04T07:29:18;98648.16;;;4.30;100.00
22653;BME280;11493;43.344;26.226;2023-02-04T07:31:52;98661.16;;;4.38;100.00
22653;BME280;11493;43.344;26.226;2023-02-04T07:34:19;98661.28;;;4.47;100.00
22653;BME280;11493;43.344;26.226;2023-02-04T07:36:46;98637.16;;;4.16;100.00
22653;BME280;11493;43.344;26.226;2023-02-04T07:39:13;98660.69;;;4.31;100.00
22653;BME280;11493;43.344;26.226;2023-02-04T07:41:40;98653.38;;;4.26;100.00
22653;BME280;11493;43.344;26.226;2023-02-04T07:44:08;98666.06;;;4.36;100.00
22653;BME280;11493;43.344;26.226;2023-02-04T07:46:35;98650.53;;;4.37;100.00
22653;BME280;11493;43.344;26.226;2023-02-04T07:49:02;98649.16;;;4.39;100.00
22653;BME280;11493;43.344;26.226;2023-02-04T07:51:29;98654.88;;;4.38;100.00
22653;BME280;11493;43.344;26.226;2023-02-04T07:53:56;98635.13;;;4.27;100.00
22653;BME280;11493;43.344;26.226;2023-02-04T07:56:23;98651.94;;;4.34;100.00
22653;BME280;11493;43.344;26.226;2023-02-04T07:58:50;98638.72;;;4.22;100.00
22653;BME280;11493;43.344;26.226;2023-02-04T08:01:17;98643.31;;;4.27;100.00
22653;BME280;11493;43.344;26.226;2023-02-04T08:03:45;98641.34;;;4.33;100.00
22653;BME280;11493;43.344;26.226;2023-02-04T08:06:12;98645.63;;;4.57;100.00
22653;BME280;11493;43.344;26.226;2023-02-04T08:08:39;98629.34;;;4.52;100.00
22653;BME280;11493;43.344;26.226;2023-02-04T08:11:06;98619.44;;;4.61;100.00
22653;BME280;11493;43.344;26.226;2023-02-04T08:13:33;98651.00;;;4.62;100.00
22653;BME280;11493;43.344;26.226;2023-02-04T08:16:00;98642.63;;;4.59;100.00
22653;BME280;11493;43.344;26.226;2023-02-04T08:18:27;98628.94;;;4.45;100.00
22653;BME280;11493;43.344;26.226;2023-02-04T08:20:54;98629.81;;;4.59;100.00
22653;BME280;11493;43.344;26.226;2023-02-04T08:23:21;98629.22;;;4.62;100.00
22653;BME280;11493;43.344;26.226;2023-02-04T08:25:49;98611.97;;;4.48;100.00
22653;BME280;11493;43.344;26.226;2023-02-04T08:28:15;98617.00;;;4.60;100.00
22653;BME280;11493;43.344;26.226;2023-02-04T08:30:43;98596.66;;;4.52;100.00
22653;BME280;11493;43.344;26.226;2023-02-04T08:33:10;98620.09;;;4.72;100.00
22653;BME280;11493;43.344;26.226;2023-02-04T08:35:38;98619.88;;;5.06;100.00
22653;BME280;11493;43.344;26.226;2023-02-04T08:38:04;98618.47;;;5.09;100.00
22653;BME280;11493;43.344;26.226;2023-02-04T08:40:32;98617.00;;;5.16;100.00
22653;BME280;11493;43.344;26.226;2023-02-04T08:42:59;98618.56;;;5.04;100.00
22653;BME280;11493;43.344;26.226;2023-02-04T08:45:26;98628.06;;;5.06;100.00
22653;BME280;11493;43.344;26.226;2023-02-04T08:47:53;98620.78;;;5.02;100.00
22653;BME280;11493;43.344;26.226;2023-02-04T08:50:20;98628.44;;;5.00;100.00
22653;BME280;11493;43.344;26.226;2023-02-04T08:52:47;98611.34;;;4.75;100.00
22653;BME280;11493;43.344;26.226;2023-02-04T08:55:14;98625.13;;;4.84;100.00
22653;BME280;11493;43.344;26.226;2023-02-04T08:57:41;98641.69;;;4.87;100.00
22653;BME280;11493;43.344;26.226;2023-02-04T09:00:10;98634.75;;;4.76;100.00
22653;BME280;11493;43.344;26.226;2023-02-04T09:02:37;98632.69;;;4.68;100.00
22653;BME280;11493;43.344;26.226;2023-02-04T09:05:04;98635.78;;;4.80;100.00
22653;BME280;11493;43.344;26.226;2023-02-04T09:07:32;98653.91;;;4.90;100.00
22653;BME280;11493;43.344;26.226;2023-02-04T09:09:59;98638.75;;;4.84;100.00
22653;BME280;11493;43.344;26.226;2023-02-04T09:12:26;98644.13;;;4.89;100.00
22653;BME280;11493;43.344;26.226;2023-02-04T09:14:53;98642.13;;;4.94;100.00
22653;BME280;11493;43.344;26.226;2023-02-04T09:17:20;98639.34;;;5.00;100.00
22653;BME280;11493;43.344;26.226;2023-02-04T09:19:47;98636.91;;;4.98;100.00
22653;BME280;11493;43.344;26.226;2023-02-04T09:22:14;98644.56;;;4.96;100.00
22653;BME280;11493;43.344;26.226;2023-02-04T09:24:41;98632.63;;;4.92;100.00
22653;BME280;11493;43.344;26.226;2023-02-04T09:27:08;98636.47;;;4.91;100.00
22653;BME280;11493;43.344;26.226;2023-02-04T09:29:35;98637.94;;;5.02;100.00
22653;BME280;11493;43.344;26.226;2023-02-04T09:32:03;98643.34;;;5.21;100.00
22653;BME280;11493;43.344;26.226;2023-02-04T09:34:30;98631.84;;;5.24;100.00
22653;BME280;11493;43.344;26.226;2023-02-04T09:36:57;98638.38;;;5.09;100.00
22653;BME280;11493;43.344;26.226;2023-02-04T09:39:27;98648.91;;;5.16;100.00
22653;BME280;11493;43.344;26.226;2023-02-04T09:41:54;98636.41;;;5.28;100.00
22653;BME280;11493;43.344;26.226;2023-02-04T09:44:23;98626.44;;;4.86;100.00
22653;BME280;11493;43.344;26.226;2023-02-04T09:46:58;98627.19;;;4.92;100.00
22653;BME280;11493;43.344;26.226;2023-02-04T09:49:26;98631.16;;;4.81;100.00
22653;BME280;11493;43.344;26.226;2023-02-04T09:51:53;98626.59;;;4.95;100.00
22653;BME280;11493;43.344;26.226;2023-02-04T09:54:22;98631.91;;;5.05;100.00
22653;BME280;11493;43.344;26.226;2023-02-04T09:56:50;98622.69;;;4.82;100.00
22653;BME280;11493;43.344;26.226;2023-02-04T09:59:20;98610.53;;;4.75;100.00
22653;BME280;11493;43.344;26.226;2023-02-04T10:01:54;98595.78;;;4.76;100.00
22653;BME280;11493;43.344;26.226;2023-02-04T10:04:23;98614.13;;;4.89;100.00
22653;BME280;11493;43.344;26.226;2023-02-04T10:06:50;98614.22;;;4.84;100.00
22653;BME280;11493;43.344;26.226;2023-02-04T10:09:17;98610.31;;;4.90;100.00
22653;BME280;11493;43.344;26.226;2023-02-04T10:11:46;98609.66;;;4.98;100.00
22653;BME280;11493;43.344;26.226;2023-02-04T10:14:17;98606.84;;;5.03;100.00
22653;BME280;11493;43.344;26.226;2023-02-04T10:16:53;98606.19;;;5.11;100.00
22653;BME280;11493;43.344;26.226;2023-02-04T10:19:26;98590.41;;;4.89;100.00
22653;BME280;11493;43.344;26.226;2023-02-04T10:21:54;98597.03;;;5.02;100.00
22653;BME280;11493;43.344;26.226;2023-02-04T10:24:23;98593.66;;;5.10;100.00
22653;BME280;11493;43.344;26.226;2023-02-04T10:26:53;98595.47;;;5.15;100.00
22653;BME280;11493;43.344;26.226;2023-02-04T10:29:22;98597.09;;;5.16;100.00
22653;BME280;11493;43.344;26.226;2023-02-04T10:31:52;98595.94;;;5.03;100.00
22653;BME280;11493;43.344;26.226;2023-02-04T10:34:38;98599.03;;;5.15;100.00
22653;BME280;11493;43.344;26.226;2023-02-04T10:37:20;98565.94;;;5.03;100.00
22653;BME280;11493;43.344;26.226;2023-02-04T10:39:50;98603.69;;;5.28;100.00
22653;BME280;11493;43.344;26.226;2023-02-04T10:42:28;98600.66;;;5.16;100.00
22653;BME280;11493;43.344;26.226;2023-02-04T10:44:56;98608.22;;;5.19;100.00
22653;BME280;11493;43.344;26.226;2023-02-04T10:47:26;98603.06;;;5.18;100.00
22653;BME280;11493;43.344;26.226;2023-02-04T10:50:14;98609.22;;;5.23;100.00
22653;BME280;11493;43.344;26.226;2023-02-04T10:52:46;98598.22;;;5.28;100.00
22653;BME280;11493;43.344;26.226;2023-02-04T10:55:17;98593.13;;;5.08;100.00
22653;BME280;11493;43.344;26.226;2023-02-04T10:57:50;98595.47;;;5.15;100.00
22653;BME280;11493;43.344;26.226;2023-02-04T11:00:20;98596.19;;;5.20;100.00
22653;BME280;11493;43.344;26.226;2023-02-04T11:03:01;98597.19;;;5.11;100.00
22653;BME280;11493;43.344;26.226;2023-02-04T11:05:30;98598.00;;;5.11;100.00
22653;BME280;11493;43.344;26.226;2023-02-04T11:07:58;98591.06;;;5.00;100.00
22653;BME280;11493;43.344;26.226;2023-02-04T11:10:30;98585.63;;;5.00;100.00
22653;BME280;11493;43.344;26.226;2023-02-04T11:13:04;98583.50;;;4.97;100.00
22653;BME280;11493;43.344;26.226;2023-02-04T11:15:41;98597.13;;;4.97;100.00
22653;BME280;11493;43.344;26.226;2023-02-04T11:20:51;98594.75;;;5.09;100.00
22653;BME280;11493;43.344;26.226;2023-02-04T11:26:13;98588.28;;;5.05;100.00
22653;BME280;11493;43.344;26.226;2023-02-04T11:39:41;98596.25;;;4.83;100.00
22653;BME280;11493;43.344;26.226;2023-02-04T11:42:18;98601.09;;;4.86;100.00
22653;BME280;11493;43.344;26.226;2023-02-04T11:44:54;98603.09;;;4.80;100.00
22653;BME280;11493;43.344;26.226;2023-02-04T11:47:25;98602.91;;;4.53;100.00
22653;BME280;11493;43.344;26.226;2023-02-04T11:50:25;98610.06;;;4.49;100.00
22653;BME280;11493;43.344;26.226;2023-02-04T11:53:51;98580.97;;;4.25;100.00
22653;BME280;11493;43.344;26.226;2023-02-04T11:56:20;98601.81;;;4.35;100.00
22653;BME280;11493;43.344;26.226;2023-02-04T11:58:49;98598.00;;;4.36;100.00
22653;BME280;11493;43.344;26.226;2023-02-04T12:01:21;98562.69;;;4.07;100.00
22653;BME280;11493;43.344;26.226;2023-02-04T12:04:04;98608.38;;;4.34;100.00
22653;BME280;11493;43.344;26.226;2023-02-04T12:06:35;98594.75;;;4.34;100.00
22653;BME280;11493;43.344;26.226;2023-02-04T12:09:23;98587.44;;;4.29;100.00
22653;BME280;11493;43.344;26.226;2023-02-04T12:11:54;98598.81;;;4.37;100.00
22653;BME280;11493;43.344;26.226;2023-02-04T12:14:28;98609.41;;;4.38;100.00
22653;BME280;11493;43.344;26.226;2023-02-04T12:16:57;98607.56;;;4.34;100.00
22653;BME280;11493;43.344;26.226;2023-02-04T12:19:25;98609.94;;;4.40;100.00
22653;BME280;11493;43.344;26.226;2023-02-04T12:21:53;98610.28;;;4.52;100.00
22653;BME280;11493;43.344;26.226;2023-02-04T12:24:21;98610.66;;;4.65;100.00
22653;BME280;11493;43.344;26.226;2023-02-04T12:26:48;98603.00;;;4.67;100.00
22653;BME280;11493;43.344;26.226;2023-02-04T12:29:15;98618.25;;;4.86;100.00
22653;BME280;11493;43.344;26.226;2023-02-04T12:31:42;98617.31;;;4.96;100.00
22653;BME280;11493;43.344;26.226;2023-02-04T12:34:10;98619.59;;;5.08;100.00
22653;BME280;11493;43.344;26.226;2023-02-04T12:36:37;98619.22;;;5.14;100.00
22653;BME280;11493;43.344;26.226;2023-02-04T12:39:04;98619.13;;;5.19;100.00
22653;BME280;11493;43.344;26.226;2023-02-04T12:41:31;98624.63;;;5.33;100.00
22653;BME280;11493;43.344;26.226;2023-02-04T12:43:58;98617.28;;;5.47;100.00
22653;BME280;11493;43.344;26.226;2023-02-04T12:46:28;98618.28;;;5.38;100.00
22653;BME280;11493;43.344;26.226;2023-02-04T12:48:55;98628.28;;;5.42;100.00
22653;BME280;11493;43.344;26.226;2023-02-04T12:51:22;98627.91;;;5.49;100.00
22653;BME280;11493;43.344;26.226;2023-02-04T12:53:49;98630.81;;;5.39;100.00
22653;BME280;11493;43.344;26.226;2023-02-04T12:56:17;98635.06;;;5.45;100.00
22653;BME280;11493;43.344;26.226;2023-02-04T12:58:46;98621.06;;;5.33;100.00
22653;BME280;11493;43.344;26.226;2023-02-04T13:01:13;98643.56;;;5.43;100.00
22653;BME280;11493;43.344;26.226;2023-02-04T13:03:41;98638.81;;;5.49;100.00
22653;BME280;11493;43.344;26.226;2023-02-04T13:06:08;98635.06;;;5.45;100.00
22653;BME280;11493;43.344;26.226;2023-02-04T13:08:35;98639.25;;;5.56;100.00
22653;BME280;11493;43.344;26.226;2023-02-04T13:11:02;98636.44;;;5.61;100.00
22653;BME280;11493;43.344;26.226;2023-02-04T13:13:29;98639.47;;;5.59;100.00